sensor_id;sensor_type;location;lat;lon;timestamp;temperature;humidity
66190;DHT22;52992;52.084;5.412;2023-02-01T00:02:25;8.90;58.30
66190;DHT22;52992;52.084;5.412;2023-02-01T00:04:51;9.00;58.50
66190;DHT22;52992;52.084;5.412;2023-02-01T00:07:18;9.00;58.60
66190;DHT22;52992;52.084;5.412;2023-02-01T00:09:45;9.00;58.50
66190;DHT22;52992;52.084;5.412;2023-02-01T00:12:12;9.00;58.50
66190;DHT22;52992;52.084;5.412;2023-02-01T00:14:39;9.00;58.40
66190;DHT22;52992;52.084;5.412;2023-02-01T00:17:06;9.10;58.30
66190;DHT22;52992;52.084;5.412;2023-02-01T00:19:34;9.10;58.30
66190;DHT22;52992;52.084;5.412;2023-02-01T00:22:00;9.10;58.20
66190;DHT22;52992;52.084;5.412;2023-02-01T00:24:27;9.10;58.30
66190;DHT22;52992;52.084;5.412;2023-02-01T00:26:54;9.10;58.30
66190;DHT22;52992;52.084;5.412;2023-02-01T00:29:22;9.10;58.50
66190;DHT22;52992;52.084;5.412;2023-02-01T00:31:52;9.10;58.50
66190;DHT22;52992;52.084;5.412;2023-02-01T00:34:19;9.10;58.70
66190;DHT22;52992;52.084;5.412;2023-02-01T00:36:47;9.10;58.70
66190;DHT22;52992;52.084;5.412;2023-02-01T00:39:14;9.10;59.20
66190;DHT22;52992;52.084;5.412;2023-02-01T00:41:41;9.20;59.00
66190;DHT22;52992;52.084;5.412;2023-02-01T00:44:08;9.20;58.80
66190;DHT22;52992;52.084;5.412;2023-02-01T00:46:35;9.20;59.00
66190;DHT22;52992;52.084;5.412;2023-02-01T00:49:02;9.30;59.00
66190;DHT22;52992;52.084;5.412;2023-02-01T00:51:30;9.30;58.90
66190;DHT22;52992;52.084;5.412;2023-02-01T00:53:57;9.30;58.80
66190;DHT22;52992;52.084;5.412;2023-02-01T00:56:24;9.30;59.00
66190;DHT22;52992;52.084;5.412;2023-02-01T00:58:51;9.30;58.60
66190;DHT22;52992;52.084;5.412;2023-02-01T01:01:24;9.20;59.00
66190;DHT22;52992;52.084;5.412;2023-02-01T01:03:56;9.30;59.20
66190;DHT22;52992;52.084;5.412;2023-02-01T01:06:28;9.20;59.40
66190;DHT22;52992;52.084;5.412;2023-02-01T01:08:57;9.20;59.10
66190;DHT22;52992;52.084;5.412;2023-02-01T01:11:27;9.20;59.40
66190;DHT22;52992;52.084;5.412;2023-02-01T01:13:55;9.30;59.00
66190;DHT22;52992;52.084;5.412;2023-02-01T01:16:24;9.40;58.90
66190;DHT22;52992;52.084;5.412;2023-02-01T01:18:53;9.40;58.30
66190;DHT22;52992;52.084;5.412;2023-02-01T01:21:20;9.50;58.60
66190;DHT22;52992;52.084;5.412;2023-02-01T01:23:47;9.50;58.30
66190;DHT22;52992;52.084;5.412;2023-02-01T01:26:18;9.50;58.40
66190;DHT22;52992;52.084;5.412;2023-02-01T01:28:45;9.50;58.40
66190;DHT22;52992;52.084;5.412;2023-02-01T01:31:13;9.50;58.30
66190;DHT22;52992;52.084;5.412;2023-02-01T01:33:41;9.50;58.40
66190;DHT22;52992;52.084;5.412;2023-02-01T01:36:09;9.40;58.00
66190;DHT22;52992;52.084;5.412;2023-02-01T01:38:40;9.50;58.10
66190;DHT22;52992;52.084;5.412;2023-02-01T01:41:08;9.50;58.00
66190;DHT22;52992;52.084;5.412;2023-02-01T01:43:56;9.50;57.90
66190;DHT22;52992;52.084;5.412;2023-02-01T01:46:28;9.50;58.00
66190;DHT22;52992;52.084;5.412;2023-02-01T01:49:16;9.50;58.10
66190;DHT22;52992;52.084;5.412;2023-02-01T01:51:48;9.50;58.00
66190;DHT22;52992;52.084;5.412;2023-02-01T01:54:29;9.50;57.80
66190;DHT22;52992;52.084;5.412;2023-02-01T01:57:04;9.50;58.00
66190;DHT22;52992;52.084;5.412;2023-02-01T01:59:35;9.60;57.60
66190;DHT22;52992;52.084;5.412;2023-02-01T02:02:03;9.60;57.30
66190;DHT22;52992;52.084;5.412;2023-02-01T02:04:31;9.70;57.60
66190;DHT22;52992;52.084;5.412;2023-02-01T02:07:11;9.70;57.70
66190;DHT22;52992;52.084;5.412;2023-02-01T02:09:39;9.80;57.30
66190;DHT22;52992;52.084;5.412;2023-02-01T02:12:13;9.80;57.00
66190;DHT22;52992;52.084;5.412;2023-02-01T02:14:40;9.80;56.90
66190;DHT22;52992;52.084;5.412;2023-02-01T02:17:29;9.80;56.90
66190;DHT22;52992;52.084;5.412;2023-02-01T02:23:05;10.00;57.00
66190;DHT22;52992;52.084;5.412;2023-02-01T02:31:54;10.00;56.50
66190;DHT22;52992;52.084;5.412;2023-02-01T02:34:34;10.00;56.60
66190;DHT22;52992;52.084;5.412;2023-02-01T02:40:12;10.00;57.00
66190;DHT22;52992;52.084;5.412;2023-02-01T02:42:58;10.00;57.00
66190;DHT22;52992;52.084;5.412;2023-02-01T02:45:59;10.10;57.30
66190;DHT22;52992;52.084;5.412;2023-02-01T02:49:20;10.10;57.00
66190;DHT22;52992;52.084;5.412;2023-02-01T02:51:53;10.20;57.00
66190;DHT22;52992;52.084;5.412;2023-02-01T02:54:43;10.30;56.80
66190;DHT22;52992;52.084;5.412;2023-02-01T02:57:19;10.30;57.00
66190;DHT22;52992;52.084;5.412;2023-02-01T03:00:08;10.30;56.90
66190;DHT22;52992;52.084;5.412;2023-02-01T03:02:55;10.40;56.40
66190;DHT22;52992;52.084;5.412;2023-02-01T03:05:44;10.40;56.70
66190;DHT22;52992;52.084;5.412;2023-02-01T03:08:27;10.40;56.70
66190;DHT22;52992;52.084;5.412;2023-02-01T03:11:07;10.40;56.70
66190;DHT22;52992;52.084;5.412;2023-02-01T03:13:57;10.50;56.80
66190;DHT22;52992;52.084;5.412;2023-02-01T03:16:32;10.40;56.70
66190;DHT22;52992;52.084;5.412;2023-02-01T03:24:13;10.20;56.50
66190;DHT22;52992;52.084;5.412;2023-02-01T03:26:47;10.20;56.60
66190;DHT22;52992;52.084;5.412;2023-02-01T03:29:18;10.20;56.80
66190;DHT22;52992;52.084;5.412;2023-02-01T03:31:48;10.10;56.90
66190;DHT22;52992;52.084;5.412;2023-02-01T03:34:15;10.10;57.50
66190;DHT22;52992;52.084;5.412;2023-02-01T03:36:48;10.00;57.10
66190;DHT22;52992;52.084;5.412;2023-02-01T03:39:36;10.00;57.20
66190;DHT22;52992;52.084;5.412;2023-02-01T03:42:15;10.00;57.40
66190;DHT22;52992;52.084;5.412;2023-02-01T03:44:51;9.90;57.60
66190;DHT22;52992;52.084;5.412;2023-02-01T03:47:23;9.90;57.30
66190;DHT22;52992;52.084;5.412;2023-02-01T03:49:57;9.90;57.50
66190;DHT22;52992;52.084;5.412;2023-02-01T03:52:29;9.90;57.60
66190;DHT22;52992;52.084;5.412;2023-02-01T03:54:59;9.90;57.70
66190;DHT22;52992;52.084;5.412;2023-02-01T03:57:33;9.90;57.50
66190;DHT22;52992;52.084;5.412;2023-02-01T04:00:27;9.90;57.30
66190;DHT22;52992;52.084;5.412;2023-02-01T04:02:56;10.00;57.50
66190;DHT22;52992;52.084;5.412;2023-02-01T04:05:23;10.00;57.30
66190;DHT22;52992;52.084;5.412;2023-02-01T04:08:03;10.00;57.10
66190;DHT22;52992;52.084;5.412;2023-02-01T04:10:31;10.00;57.10
66190;DHT22;52992;52.084;5.412;2023-02-01T04:12:58;10.10;57.30
66190;DHT22;52992;52.084;5.412;2023-02-01T04:15:25;10.10;57.20
66190;DHT22;52992;52.084;5.412;2023-02-01T04:17:52;10.20;56.70
66190;DHT22;52992;52.084;5.412;2023-02-01T04:20:18;10.30;56.50
66190;DHT22;52992;52.084;5.412;2023-02-01T04:22:46;10.30;56.20
66190;DHT22;52992;52.084;5.412;2023-02-01T04:25:12;10.30;56.10
66190;DHT22;52992;52.084;5.412;2023-02-01T04:27:39;10.30;55.90
66190;DHT22;52992;52.084;5.412;2023-02-01T04:30:05;10.30;56.10
66190;DHT22;52992;52.084;5.412;2023-02-01T04:32:37;10.30;55.90
66190;DHT22;52992;52.084;5.412;2023-02-01T04:35:04;10.40;55.90
66190;DHT22;52992;52.084;5.412;2023-02-01T04:37:31;10.40;55.50
66190;DHT22;52992;52.084;5.412;2023-02-01T04:39:58;10.50;54.90
66190;DHT22;52992;52.084;5.412;2023-02-01T04:42:25;10.60;55.20
66190;DHT22;52992;52.084;5.412;2023-02-01T04:44:51;10.50;55.50
66190;DHT22;52992;52.084;5.412;2023-02-01T04:47:18;10.50;55.60
66190;DHT22;52992;52.084;5.412;2023-02-01T04:49:45;10.50;55.40
66190;DHT22;52992;52.084;5.412;2023-02-01T04:52:12;10.50;55.10
66190;DHT22;52992;52.084;5.412;2023-02-01T04:54:39;10.50;54.90
66190;DHT22;52992;52.084;5.412;2023-02-01T04:57:05;10.50;55.00
66190;DHT22;52992;52.084;5.412;2023-02-01T04:59:32;10.30;55.50
66190;DHT22;52992;52.084;5.412;2023-02-01T05:01:59;10.20;56.00
66190;DHT22;52992;52.084;5.412;2023-02-01T05:04:26;10.20;56.20
66190;DHT22;52992;52.084;5.412;2023-02-01T05:06:53;10.20;56.30
66190;DHT22;52992;52.084;5.412;2023-02-01T05:09:19;10.20;56.60
66190;DHT22;52992;52.084;5.412;2023-02-01T05:11:48;10.10;56.60
66190;DHT22;52992;52.084;5.412;2023-02-01T05:14:33;10.10;56.30
66190;DHT22;52992;52.084;5.412;2023-02-01T05:17:00;10.20;56.10
66190;DHT22;52992;52.084;5.412;2023-02-01T05:19:27;10.20;56.20
66190;DHT22;52992;52.084;5.412;2023-02-01T05:21:53;10.10;56.70
66190;DHT22;52992;52.084;5.412;2023-02-01T05:24:20;10.10;56.70
66190;DHT22;52992;52.084;5.412;2023-02-01T05:26:48;10.10;56.60
66190;DHT22;52992;52.084;5.412;2023-02-01T05:29:17;10.10;56.80
66190;DHT22;52992;52.084;5.412;2023-02-01T05:31:45;10.20;56.80
66190;DHT22;52992;52.084;5.412;2023-02-01T05:34:13;10.20;56.30
66190;DHT22;52992;52.084;5.412;2023-02-01T05:36:40;10.20;56.50
66190;DHT22;52992;52.084;5.412;2023-02-01T05:39:07;10.30;56.10
66190;DHT22;52992;52.084;5.412;2023-02-01T05:41:34;10.30;56.70
66190;DHT22;52992;52.084;5.412;2023-02-01T05:44:01;10.30;56.70
66190;DHT22;52992;52.084;5.412;2023-02-01T05:46:29;10.20;56.60
66190;DHT22;52992;52.084;5.412;2023-02-01T05:48:56;10.20;56.40
66190;DHT22;52992;52.084;5.412;2023-02-01T05:51:22;10.20;56.70
66190;DHT22;52992;52.084;5.412;2023-02-01T05:53:49;10.30;56.50
66190;DHT22;52992;52.084;5.412;2023-02-01T05:56:16;10.30;56.50
66190;DHT22;52992;52.084;5.412;2023-02-01T05:58:43;10.30;56.20
66190;DHT22;52992;52.084;5.412;2023-02-01T06:01:11;10.40;56.10
66190;DHT22;52992;52.084;5.412;2023-02-01T06:03:38;10.40;56.00
66190;DHT22;52992;52.084;5.412;2023-02-01T06:06:05;10.40;55.50
66190;DHT22;52992;52.084;5.412;2023-02-01T06:08:32;10.30;56.50
66190;DHT22;52992;52.084;5.412;2023-02-01T06:11:00;10.30;56.20
66190;DHT22;52992;52.084;5.412;2023-02-01T06:13:28;10.40;56.00
66190;DHT22;52992;52.084;5.412;2023-02-01T06:15:55;10.40;56.10
66190;DHT22;52992;52.084;5.412;2023-02-01T06:18:25;10.40;55.90
66190;DHT22;52992;52.084;5.412;2023-02-01T06:20:56;10.40;56.10
66190;DHT22;52992;52.084;5.412;2023-02-01T06:23:23;10.40;56.00
66190;DHT22;52992;52.084;5.412;2023-02-01T06:25:59;10.50;56.10
66190;DHT22;52992;52.084;5.412;2023-02-01T06:28:27;10.50;56.40
66190;DHT22;52992;52.084;5.412;2023-02-01T06:30:55;10.40;56.40
66190;DHT22;52992;52.084;5.412;2023-02-01T06:33:22;10.40;56.70
66190;DHT22;52992;52.084;5.412;2023-02-01T06:35:48;10.40;56.80
66190;DHT22;52992;52.084;5.412;2023-02-01T06:38:15;10.20;57.10
66190;DHT22;52992;52.084;5.412;2023-02-01T06:40:42;10.20;57.10
66190;DHT22;52992;52.084;5.412;2023-02-01T06:43:10;10.20;57.00
66190;DHT22;52992;52.084;5.412;2023-02-01T06:45:37;10.20;57.40
66190;DHT22;52992;52.084;5.412;2023-02-01T06:48:05;10.10;57.60
66190;DHT22;52992;52.084;5.412;2023-02-01T06:50:32;10.10;57.20
66190;DHT22;52992;52.084;5.412;2023-02-01T06:52:59;10.10;57.40
66190;DHT22;52992;52.084;5.412;2023-02-01T06:55:26;10.10;57.40
66190;DHT22;52992;52.084;5.412;2023-02-01T06:57:54;10.10;57.40
66190;DHT22;52992;52.084;5.412;2023-02-01T07:00:22;10.00;57.50
66190;DHT22;52992;52.084;5.412;2023-02-01T07:02:50;10.00;57.60
66190;DHT22;52992;52.084;5.412;2023-02-01T07:05:17;10.10;57.50
66190;DHT22;52992;52.084;5.412;2023-02-01T07:07:44;10.00;57.50
66190;DHT22;52992;52.084;5.412;2023-02-01T07:10:11;10.00;57.90
66190;DHT22;52992;52.084;5.412;2023-02-01T07:12:38;10.10;57.70
66190;DHT22;52992;52.084;5.412;2023-02-01T07:15:06;10.10;57.40
66190;DHT22;52992;52.084;5.412;2023-02-01T07:17:33;10.10;57.70
66190;DHT22;52992;52.084;5.412;2023-02-01T07:19:59;10.10;57.60
66190;DHT22;52992;52.084;5.412;2023-02-01T07:22:28;10.10;57.70
66190;DHT22;52992;52.084;5.412;2023-02-01T07:24:54;10.20;57.80
66190;DHT22;52992;52.084;5.412;2023-02-01T07:27:21;10.30;57.70
66190;DHT22;52992;52.084;5.412;2023-02-01T07:29:51;10.30;57.50
66190;DHT22;52992;52.084;5.412;2023-02-01T07:32:18;10.20;57.60
66190;DHT22;52992;52.084;5.412;2023-02-01T07:34:45;10.20;57.50
66190;DHT22;52992;52.084;5.412;2023-02-01T07:37:12;10.20;57.90
66190;DHT22;52992;52.084;5.412;2023-02-01T07:39:39;10.10;58.10
66190;DHT22;52992;52.084;5.412;2023-02-01T07:42:06;10.10;57.70
66190;DHT22;52992;52.084;5.412;2023-02-01T07:44:33;10.10;57.90
66190;DHT22;52992;52.084;5.412;2023-02-01T07:47:00;10.10;57.90
66190;DHT22;52992;52.084;5.412;2023-02-01T07:49:27;10.10;57.80
66190;DHT22;52992;52.084;5.412;2023-02-01T07:51:54;10.20;57.80
66190;DHT22;52992;52.084;5.412;2023-02-01T07:54:21;10.10;57.60
66190;DHT22;52992;52.084;5.412;2023-02-01T07:56:48;10.20;57.40
66190;DHT22;52992;52.084;5.412;2023-02-01T07:59:14;10.20;57.30
66190;DHT22;52992;52.084;5.412;2023-02-01T08:01:42;10.20;57.70
66190;DHT22;52992;52.084;5.412;2023-02-01T08:04:12;10.20;57.70
66190;DHT22;52992;52.084;5.412;2023-02-01T08:06:39;10.20;57.50
66190;DHT22;52992;52.084;5.412;2023-02-01T08:09:07;10.20;58.00
66190;DHT22;52992;52.084;5.412;2023-02-01T08:11:37;10.20;57.60
66190;DHT22;52992;52.084;5.412;2023-02-01T08:14:05;10.20;57.80
66190;DHT22;52992;52.084;5.412;2023-02-01T08:16:33;10.20;57.70
66190;DHT22;52992;52.084;5.412;2023-02-01T08:19:01;10.20;57.70
66190;DHT22;52992;52.084;5.412;2023-02-01T08:21:29;10.20;57.60
66190;DHT22;52992;52.084;5.412;2023-02-01T08:24:06;10.20;57.80
66190;DHT22;52992;52.084;5.412;2023-02-01T08:26:33;10.20;57.70
66190;DHT22;52992;52.084;5.412;2023-02-01T08:29:02;10.20;57.90
66190;DHT22;52992;52.084;5.412;2023-02-01T08:31:29;10.20;57.90
66190;DHT22;52992;52.084;5.412;2023-02-01T08:33:59;10.30;57.80
66190;DHT22;52992;52.084;5.412;2023-02-01T08:36:28;10.30;57.60
66190;DHT22;52992;52.084;5.412;2023-02-01T08:38:56;10.30;57.90
66190;DHT22;52992;52.084;5.412;2023-02-01T08:41:25;10.30;57.70
66190;DHT22;52992;52.084;5.412;2023-02-01T08:43:52;10.30;57.90
66190;DHT22;52992;52.084;5.412;2023-02-01T08:46:21;10.30;57.80
66190;DHT22;52992;52.084;5.412;2023-02-01T08:48:48;10.40;57.90
66190;DHT22;52992;52.084;5.412;2023-02-01T08:51:17;10.40;57.70
66190;DHT22;52992;52.084;5.412;2023-02-01T08:53:44;10.40;57.80
66190;DHT22;52992;52.084;5.412;2023-02-01T08:56:12;10.40;57.90
66190;DHT22;52992;52.084;5.412;2023-02-01T08:58:40;10.50;57.70
66190;DHT22;52992;52.084;5.412;2023-02-01T09:01:10;10.50;57.90
66190;DHT22;52992;52.084;5.412;2023-02-01T09:03:37;10.50;57.40
66190;DHT22;52992;52.084;5.412;2023-02-01T09:06:06;10.50;57.50
66190;DHT22;52992;52.084;5.412;2023-02-01T09:08:34;10.60;57.70
66190;DHT22;52992;52.084;5.412;2023-02-01T09:11:02;10.70;57.50
66190;DHT22;52992;52.084;5.412;2023-02-01T09:13:30;10.70;57.20
66190;DHT22;52992;52.084;5.412;2023-02-01T09:15:57;10.80;57.00
66190;DHT22;52992;52.084;5.412;2023-02-01T09:18:26;10.90;57.00
66190;DHT22;52992;52.084;5.412;2023-02-01T09:20:53;11.00;56.10
66190;DHT22;52992;52.084;5.412;2023-02-01T09:23:20;11.10;56.10
66190;DHT22;52992;52.084;5.412;2023-02-01T09:25:47;11.30;55.70
66190;DHT22;52992;52.084;5.412;2023-02-01T09:28:17;11.40;55.60
66190;DHT22;52992;52.084;5.412;2023-02-01T09:30:44;11.70;55.10
66190;DHT22;52992;52.084;5.412;2023-02-01T09:33:12;11.90;54.00
66190;DHT22;52992;52.084;5.412;2023-02-01T09:35:38;12.00;53.40
66190;DHT22;52992;52.084;5.412;2023-02-01T09:38:05;12.00;53.90
66190;DHT22;52992;52.084;5.412;2023-02-01T09:40:34;12.00;53.60
66190;DHT22;52992;52.084;5.412;2023-02-01T09:45:55;11.80;54.20
66190;DHT22;52992;52.084;5.412;2023-02-01T09:48:30;11.80;54.10
66190;DHT22;52992;52.084;5.412;2023-02-01T09:51:00;11.80;54.50
66190;DHT22;52992;52.084;5.412;2023-02-01T09:53:38;11.80;54.10
66190;DHT22;52992;52.084;5.412;2023-02-01T09:56:12;11.80;53.70
66190;DHT22;52992;52.084;5.412;2023-02-01T09:58:42;11.80;54.10
66190;DHT22;52992;52.084;5.412;2023-02-01T10:01:18;11.70;54.60
66190;DHT22;52992;52.084;5.412;2023-02-01T10:03:46;11.60;54.80
66190;DHT22;52992;52.084;5.412;2023-02-01T10:06:41;11.60;55.00
66190;DHT22;52992;52.084;5.412;2023-02-01T10:09:20;11.50;55.00
66190;DHT22;52992;52.084;5.412;2023-02-01T10:20:07;11.30;56.00
66190;DHT22;52992;52.084;5.412;2023-02-01T10:22:47;11.30;56.50
66190;DHT22;52992;52.084;5.412;2023-02-01T10:25:50;11.30;56.40
66190;DHT22;52992;52.084;5.412;2023-02-01T10:28:20;11.10;57.70
66190;DHT22;52992;52.084;5.412;2023-02-01T10:30:49;11.00;58.40
66190;DHT22;52992;52.084;5.412;2023-02-01T10:33:23;10.90;59.50
66190;DHT22;52992;52.084;5.412;2023-02-01T10:36:00;10.70;60.10
66190;DHT22;52992;52.084;5.412;2023-02-01T10:38:32;10.60;61.40
66190;DHT22;52992;52.084;5.412;2023-02-01T10:41:12;10.50;61.80
66190;DHT22;52992;52.084;5.412;2023-02-01T10:43:40;10.50;62.10
66190;DHT22;52992;52.084;5.412;2023-02-01T10:46:08;10.50;62.10
66190;DHT22;52992;52.084;5.412;2023-02-01T10:48:36;10.60;61.60
66190;DHT22;52992;52.084;5.412;2023-02-01T10:51:08;10.60;61.30
66190;DHT22;52992;52.084;5.412;2023-02-01T10:56:26;10.80;61.60
66190;DHT22;52992;52.084;5.412;2023-02-01T10:59:04;10.90;60.50
66190;DHT22;52992;52.084;5.412;2023-02-01T11:01:34;10.90;59.20
66190;DHT22;52992;52.084;5.412;2023-02-01T11:04:24;10.80;59.30
66190;DHT22;52992;52.084;5.412;2023-02-01T11:07:05;10.80;59.60
66190;DHT22;52992;52.084;5.412;2023-02-01T11:09:39;10.90;59.30
66190;DHT22;52992;52.084;5.412;2023-02-01T11:12:31;10.90;59.10
66190;DHT22;52992;52.084;5.412;2023-02-01T11:17:42;11.10;58.80
66190;DHT22;52992;52.084;5.412;2023-02-01T11:20:15;11.10;58.80
66190;DHT22;52992;52.084;5.412;2023-02-01T11:22:56;11.20;58.50
66190;DHT22;52992;52.084;5.412;2023-02-01T11:25:24;11.10;58.50
66190;DHT22;52992;52.084;5.412;2023-02-01T11:27:54;11.10;59.00
66190;DHT22;52992;52.084;5.412;2023-02-01T11:30:38;11.10;59.90
66190;DHT22;52992;52.084;5.412;2023-02-01T11:33:20;11.20;58.90
66190;DHT22;52992;52.084;5.412;2023-02-01T11:35:52;11.30;58.40
66190;DHT22;52992;52.084;5.412;2023-02-01T11:38:29;11.30;58.40
66190;DHT22;52992;52.084;5.412;2023-02-01T11:41:30;11.40;58.10
66190;DHT22;52992;52.084;5.412;2023-02-01T11:44:05;11.50;58.40
66190;DHT22;52992;52.084;5.412;2023-02-01T11:46:42;11.70;57.80
66190;DHT22;52992;52.084;5.412;2023-02-01T11:49:22;11.70;57.10
66190;DHT22;52992;52.084;5.412;2023-02-01T12:00:39;11.90;56.10
66190;DHT22;52992;52.084;5.412;2023-02-01T12:05:54;12.40;54.60
66190;DHT22;52992;52.084;5.412;2023-02-01T12:11:35;12.40;53.90
66190;DHT22;52992;52.084;5.412;2023-02-01T12:18:03;12.30;54.00
66190;DHT22;52992;52.084;5.412;2023-02-01T12:29:34;12.70;53.70
66190;DHT22;52992;52.084;5.412;2023-02-01T12:37:55;12.60;54.00
66190;DHT22;52992;52.084;5.412;2023-02-01T12:43:35;12.40;53.90
66190;DHT22;52992;52.084;5.412;2023-02-01T12:49:10;12.30;54.10
66190;DHT22;52992;52.084;5.412;2023-02-01T12:51:41;12.20;54.40
66190;DHT22;52992;52.084;5.412;2023-02-01T12:54:55;12.20;54.90
66190;DHT22;52992;52.084;5.412;2023-02-01T12:57:25;12.20;54.40
66190;DHT22;52992;52.084;5.412;2023-02-01T13:05:20;12.30;54.20
66190;DHT22;52992;52.084;5.412;2023-02-01T13:16:26;12.40;53.80
66190;DHT22;52992;52.084;5.412;2023-02-01T13:19:22;12.40;54.10
66190;DHT22;52992;52.084;5.412;2023-02-01T13:22:02;12.40;54.40
66190;DHT22;52992;52.084;5.412;2023-02-01T13:24:40;12.40;54.40
66190;DHT22;52992;52.084;5.412;2023-02-01T13:27:12;12.30;54.20
66190;DHT22;52992;52.084;5.412;2023-02-01T13:29:55;12.10;54.70
66190;DHT22;52992;52.084;5.412;2023-02-01T13:32:27;12.10;55.60
66190;DHT22;52992;52.084;5.412;2023-02-01T13:44:09;12.00;55.40
66190;DHT22;52992;52.084;5.412;2023-02-01T13:46:46;12.00;55.90
66190;DHT22;52992;52.084;5.412;2023-02-01T13:49:26;12.00;56.20
66190;DHT22;52992;52.084;5.412;2023-02-01T13:51:56;12.00;55.70
66190;DHT22;52992;52.084;5.412;2023-02-01T13:54:34;12.00;55.40
66190;DHT22;52992;52.084;5.412;2023-02-01T13:57:04;12.00;55.90
66190;DHT22;52992;52.084;5.412;2023-02-01T14:21:31;12.20;55.80
66190;DHT22;52992;52.084;5.412;2023-02-01T14:31:50;12.20;55.80
66190;DHT22;52992;52.084;5.412;2023-02-01T14:34:31;12.20;55.20
66190;DHT22;52992;52.084;5.412;2023-02-01T14:37:07;12.20;55.30
66190;DHT22;52992;52.084;5.412;2023-02-01T14:42:12;12.10;55.80
66190;DHT22;52992;52.084;5.412;2023-02-01T14:44:41;12.10;55.60
66190;DHT22;52992;52.084;5.412;2023-02-01T14:47:27;12.10;56.20
66190;DHT22;52992;52.084;5.412;2023-02-01T14:49:59;12.10;56.20
66190;DHT22;52992;52.084;5.412;2023-02-01T14:52:35;12.10;56.30
66190;DHT22;52992;52.084;5.412;2023-02-01T14:55:05;12.00;56.10
66190;DHT22;52992;52.084;5.412;2023-02-01T14:57:37;12.00;56.30
66190;DHT22;52992;52.084;5.412;2023-02-01T15:00:27;12.00;55.80
66190;DHT22;52992;52.084;5.412;2023-02-01T15:03:13;12.00;56.40
66190;DHT22;52992;52.084;5.412;2023-02-01T15:05:42;12.00;56.60
66190;DHT22;52992;52.084;5.412;2023-02-01T15:08:17;12.00;56.80
66190;DHT22;52992;52.084;5.412;2023-02-01T15:10:48;11.90;57.40
66190;DHT22;52992;52.084;5.412;2023-02-01T15:13:24;11.90;57.60
66190;DHT22;52992;52.084;5.412;2023-02-01T15:16:12;11.90;57.90
66190;DHT22;52992;52.084;5.412;2023-02-01T15:18:39;11.90;57.60
66190;DHT22;52992;52.084;5.412;2023-02-01T15:21:21;12.00;57.60
66190;DHT22;52992;52.084;5.412;2023-02-01T15:26:51;12.00;57.60
66190;DHT22;52992;52.084;5.412;2023-02-01T15:29:20;12.00;57.50
66190;DHT22;52992;52.084;5.412;2023-02-01T15:31:50;12.00;57.30
66190;DHT22;52992;52.084;5.412;2023-02-01T15:34:19;12.00;57.40
66190;DHT22;52992;52.084;5.412;2023-02-01T15:36:46;12.00;57.30
66190;DHT22;52992;52.084;5.412;2023-02-01T15:39:27;12.00;57.60
66190;DHT22;52992;52.084;5.412;2023-02-01T15:41:59;12.00;57.10
66190;DHT22;52992;52.084;5.412;2023-02-01T15:44:38;12.10;57.20
66190;DHT22;52992;52.084;5.412;2023-02-01T15:47:33;12.10;57.20
66190;DHT22;52992;52.084;5.412;2023-02-01T15:50:01;12.10;57.10
66190;DHT22;52992;52.084;5.412;2023-02-01T15:55:00;12.00;57.30
66190;DHT22;52992;52.084;5.412;2023-02-01T15:57:34;12.10;57.60
66190;DHT22;52992;52.084;5.412;2023-02-01T16:00:22;12.10;56.80
66190;DHT22;52992;52.084;5.412;2023-02-01T16:02:57;12.10;56.90
66190;DHT22;52992;52.084;5.412;2023-02-01T16:08:14;12.10;56.80
66190;DHT22;52992;52.084;5.412;2023-02-01T16:10:44;12.10;56.80
66190;DHT22;52992;52.084;5.412;2023-02-01T16:13:12;12.10;57.00
66190;DHT22;52992;52.084;5.412;2023-02-01T16:15:39;12.10;57.10
66190;DHT22;52992;52.084;5.412;2023-02-01T16:18:10;12.10;56.80
66190;DHT22;52992;52.084;5.412;2023-02-01T16:20:39;12.10;56.70
66190;DHT22;52992;52.084;5.412;2023-02-01T16:23:07;12.20;56.70
66190;DHT22;52992;52.084;5.412;2023-02-01T16:25:35;12.10;56.80
66190;DHT22;52992;52.084;5.412;2023-02-01T16:28:02;12.10;57.20
66190;DHT22;52992;52.084;5.412;2023-02-01T16:30:30;12.10;56.90
66190;DHT22;52992;52.084;5.412;2023-02-01T16:32:59;12.10;56.50
66190;DHT22;52992;52.084;5.412;2023-02-01T16:35:27;12.10;56.90
66190;DHT22;52992;52.084;5.412;2023-02-01T16:37:54;12.10;57.00
66190;DHT22;52992;52.084;5.412;2023-02-01T16:40:21;12.00;56.70
66190;DHT22;52992;52.084;5.412;2023-02-01T16:42:51;12.10;56.90
66190;DHT22;52992;52.084;5.412;2023-02-01T16:45:20;12.10;56.80
66190;DHT22;52992;52.084;5.412;2023-02-01T16:47:50;12.10;57.40
66190;DHT22;52992;52.084;5.412;2023-02-01T16:50:21;12.20;56.60
66190;DHT22;52992;52.084;5.412;2023-02-01T16:52:50;12.20;56.60
66190;DHT22;52992;52.084;5.412;2023-02-01T16:55:19;12.20;56.80
66190;DHT22;52992;52.084;5.412;2023-02-01T16:57:48;12.20;56.50
66190;DHT22;52992;52.084;5.412;2023-02-01T17:00:15;12.10;57.10
66190;DHT22;52992;52.084;5.412;2023-02-01T17:02:52;12.10;56.50
66190;DHT22;52992;52.084;5.412;2023-02-01T17:05:19;12.10;57.20
66190;DHT22;52992;52.084;5.412;2023-02-01T17:07:47;12.10;56.90
66190;DHT22;52992;52.084;5.412;2023-02-01T17:10:22;12.10;56.90
66190;DHT22;52992;52.084;5.412;2023-02-01T17:13:00;12.10;57.20
66190;DHT22;52992;52.084;5.412;2023-02-01T17:15:31;12.20;57.20
66190;DHT22;52992;52.084;5.412;2023-02-01T17:18:00;12.20;57.00
66190;DHT22;52992;52.084;5.412;2023-02-01T17:20:30;12.20;56.80
66190;DHT22;52992;52.084;5.412;2023-02-01T17:22:58;12.20;57.10
66190;DHT22;52992;52.084;5.412;2023-02-01T17:25:26;12.20;57.10
66190;DHT22;52992;52.084;5.412;2023-02-01T17:27:54;12.20;57.60
66190;DHT22;52992;52.084;5.412;2023-02-01T17:30:21;12.20;57.70
66190;DHT22;52992;52.084;5.412;2023-02-01T17:32:48;12.20;57.40
66190;DHT22;52992;52.084;5.412;2023-02-01T17:35:22;12.20;57.30
66190;DHT22;52992;52.084;5.412;2023-02-01T17:37:50;12.20;57.40
66190;DHT22;52992;52.084;5.412;2023-02-01T17:40:18;12.20;57.50
66190;DHT22;52992;52.084;5.412;2023-02-01T17:42:45;12.30;57.60
66190;DHT22;52992;52.084;5.412;2023-02-01T17:45:32;12.30;57.20
66190;DHT22;52992;52.084;5.412;2023-02-01T17:48:04;12.30;57.00
66190;DHT22;52992;52.084;5.412;2023-02-01T17:50:36;12.30;57.50
66190;DHT22;52992;52.084;5.412;2023-02-01T17:53:04;12.30;57.40
66190;DHT22;52992;52.084;5.412;2023-02-01T17:55:34;12.30;57.40
66190;DHT22;52992;52.084;5.412;2023-02-01T17:58:01;12.30;57.70
66190;DHT22;52992;52.084;5.412;2023-02-01T18:00:28;12.30;57.50
66190;DHT22;52992;52.084;5.412;2023-02-01T18:02:55;12.30;57.60
66190;DHT22;52992;52.084;5.412;2023-02-01T18:05:40;12.40;57.20
66190;DHT22;52992;52.084;5.412;2023-02-01T18:08:08;12.30;57.70
66190;DHT22;52992;52.084;5.412;2023-02-01T18:10:35;12.30;57.80
66190;DHT22;52992;52.084;5.412;2023-02-01T18:13:02;12.30;57.80
66190;DHT22;52992;52.084;5.412;2023-02-01T18:15:30;12.40;57.80
66190;DHT22;52992;52.084;5.412;2023-02-01T18:17:57;12.30;57.50